In Rescue
 
Open Full Screen Window  High Contrast Mode
Wind Gusting 00 knots
06
July 22, 2019 11:43 PM CDT
Weather Information
Wind Direction
  300 °
Wind Speed
  06 kt (7 mph)
Wind Gust
  00 kt (0 mph)
Altimeter
30.18 in
Visibility
10 SM
Temperature
18° C
64° F
Dewpoint
11° C
52° F
Humidity
64%
1hr Rain Fall
00.00 in.
24hr Rain Fall
00.00 in.
Sky Condition
Clear
VFR

METAR KCOQ 230443Z AUTO 30006KT 10SM CLR 18/11 A3018 RMK AO2

FAA Disclaimer: The data displayed is for advisory purposes only and is not to be used for flight planning or operations.